Time;durP1;ratioP1;P1;durP2;ratioP2;P2;SDS_P1;SDS_P2;PMS_P1;PMS_P2;Temp;Humidity;BMP_temperature;BMP_pressure;BME280_temperature;BME280_humidity;BME280_pressure;Samples;Min_cycle;Max_cycle;Signal;HPM_P1;HPM_P2
2021/08/09 00:01:23;;;;;;;3.22;1.30;;;;;;;15.32;65.06;100066.75;3557376;40;20354;-79
2021/08/09 00:03:52;;;;;;;2.28;0.93;;;;;;;15.31;65.02;100077.34;3557891;40;20088;-79
2021/08/09 00:06:23;;;;;;;3.78;0.90;;;;;;;15.19;65.27;100057.78;3554379;40;20486;-79
2021/08/09 00:08:53;;;;;;;3.50;0.95;;;;;;;15.31;64.92;100087.88;3536447;40;20108;-80
2021/08/09 00:11:20;;;;;;;1.67;0.60;;;;;;;15.19;65.22;100070.94;3578385;40;20088;-80
2021/08/09 00:13:47;;;;;;;1.90;1.03;;;;;;;15.24;65.35;100079.44;3567091;40;20470;-79
2021/08/09 00:16:16;;;;;;;3.57;1.00;;;;;;;15.23;65.46;100085.63;3543277;40;20977;-79
2021/08/09 00:18:48;;;;;;;5.18;1.33;;;;;;;15.20;65.50;100085.78;3569122;40;21882;-79
2021/08/09 00:21:18;;;;;;;2.65;0.82;;;;;;;15.19;65.86;100089.34;3565169;40;21935;-79
2021/08/09 00:23:45;;;;;;;2.50;0.63;;;;;;;15.15;66.27;100087.78;3559945;40;20517;-79
2021/08/09 00:26:14;;;;;;;2.87;1.17;;;;;;;15.16;65.78;100099.19;3564139;40;20049;-78
2021/08/09 00:28:47;;;;;;;3.05;1.10;;;;;;;15.08;65.51;100075.91;3564186;40;20738;-79
2021/08/09 00:31:14;;;;;;;2.22;0.70;;;;;;;15.10;66.02;100078.44;3546140;40;20109;-79
2021/08/09 00:33:42;;;;;;;1.07;0.53;;;;;;;14.97;66.03;100067.72;3555132;40;20053;-79
2021/08/09 00:36:09;;;;;;;3.53;0.70;;;;;;;14.97;65.90;100070.34;3563676;40;20033;-79
2021/08/09 00:38:46;;;;;;;1.85;0.70;;;;;;;15.06;66.14;100090.91;3548278;40;20061;-79
2021/08/09 00:41:13;;;;;;;2.78;1.00;;;;;;;14.97;66.57;100083.50;3560415;40;20100;-78
2021/08/09 00:43:42;;;;;;;5.25;1.10;;;;;;;14.77;66.47;100056.41;3554068;40;20054;-79
2021/08/09 00:46:12;;;;;;;2.20;0.63;;;;;;;14.93;66.18;100076.69;3560304;40;20510;-78
2021/08/09 00:48:46;;;;;;;1.75;0.70;;;;;;;14.91;65.90;100075.91;3535535;40;20045;-79
2021/08/09 00:51:13;;;;;;;5.18;0.75;;;;;;;14.86;66.42;100072.66;3529066;40;20057;-79
2021/08/09 00:53:50;;;;;;;2.25;0.80;;;;;;;14.91;65.72;100089.91;3540074;40;20053;-79
2021/08/09 00:56:19;;;;;;;2.30;0.88;;;;;;;14.87;66.38;100087.50;3526960;40;20045;-79
2021/08/09 00:58:48;;;;;;;3.40;0.60;;;;;;;14.79;66.67;100075.59;3553325;40;20084;-79
2021/08/09 01:01:15;;;;;;;3.45;0.77;;;;;;;14.87;66.24;100087.50;3562016;40;20049;-79
2021/08/09 01:03:47;;;;;;;2.10;0.68;;;;;;;14.83;66.20;100096.47;3545370;40;20779;-80
2021/08/09 01:06:16;;;;;;;3.50;0.88;;;;;;;14.81;66.58;100086.03;3565145;40;20354;-79
2021/08/09 01:09:14;;;;;;;3.25;0.88;;;;;;;14.82;65.92;100095.63;3569751;40;20064;-80
2021/08/09 01:11:49;;;;;;;4.55;0.80;;;;;;;14.79;66.72;100091.34;3547287;40;20853;-80
2021/08/09 01:14:37;;;;;;;3.40;1.00;;;;;;;14.74;66.69;100093.34;3548601;40;20356;-79
2021/08/09 01:17:10;;;;;;;1.45;0.60;;;;;;;14.69;66.16;100090.09;3527098;40;20038;-79
2021/08/09 01:19:38;;;;;;;2.45;0.77;;;;;;;14.68;67.19;100095.44;3513382;40;20093;-79
2021/08/09 01:22:37;;;;;;;1.88;0.68;;;;;;;14.66;65.72;100090.28;3554382;40;20077;-79
2021/08/09 01:25:35;;;;;;;2.40;0.85;;;;;;;14.63;65.52;100090.41;3553371;40;20060;-80
2021/08/09 01:28:08;;;;;;;1.35;0.57;;;;;;;14.60;66.70;100090.59;3554853;40;20057;-79
2021/08/09 01:30:37;;;;;;;5.80;0.70;;;;;;;14.51;67.12;100085.78;3530399;40;20065;-78
2021/08/09 01:33:09;;;;;;;3.85;1.00;;;;;;;14.47;67.12;100081.56;3524922;40;20073;-79
2021/08/09 01:35:41;;;;;;;2.50;0.75;;;;;;;14.50;67.85;100089.34;3569675;40;20088;-78
2021/08/09 01:38:12;;;;;;;2.58;1.00;;;;;;;14.50;67.61;100084.09;3556568;40;20053;-79
2021/08/09 01:40:56;;;;;;;1.17;0.52;;;;;;;14.49;66.54;100082.34;3544101;40;20058;-79
2021/08/09 01:43:29;;;;;;;1.05;0.43;;;;;;;14.40;67.31;100074.91;3541518;40;20061;-79
2021/08/09 01:45:59;;;;;;;1.27;0.60;;;;;;;14.41;67.78;100079.22;3573120;40;20052;-79
2021/08/09 01:48:27;;;;;;;1.98;0.73;;;;;;;14.36;68.02;100071.56;3538852;40;20069;-78
2021/08/09 01:50:55;;;;;;;;;;;;;;;14.42;65.31;100080.94;3544892;40;20099;-79
2021/08/09 01:53:31;;;;;;;2.15;0.63;;;;;;;14.38;66.96;100079.38;3547850;40;24450;-79
2021/08/09 01:56:25;;;;;;;2.88;0.90;;;;;;;14.37;66.10;100083.78;3565806;40;20045;-79
2021/08/09 01:58:52;;;;;;;1.65;0.60;;;;;;;14.30;67.87;100078.91;3562999;40;20049;-79
2021/08/09 02:01:21;;;;;;;0.85;0.45;;;;;;;14.24;67.75;100073.03;3573095;40;21925;-79
2021/08/09 02:03:48;;;;;;;;;;;;;;;14.30;65.33;100082.38;3559141;40;20064;-79
2021/08/09 02:06:15;;;;;;;2.15;0.68;;;;;;;14.19;68.21;100077.66;3554863;40;19939;-79
2021/08/09 02:08:52;;;;;;;2.33;0.68;;;;;;;14.23;67.21;100084.44;3562981;40;20156;-78
2021/08/09 02:11:38;;;;;;;2.85;0.73;;;;;;;14.18;67.00;100067.19;3543568;40;20044;-78
2021/08/09 02:14:33;;;;;;;1.73;0.73;;;;;;;14.22;66.80;100085.34;3549941;40;20055;-79
2021/08/09 02:17:14;;;;;;;1.40;0.63;;;;;;;14.18;67.65;100082.94;3535492;40;20041;-79
2021/08/09 02:20:01;;;;;;;1.95;0.70;;;;;;;14.14;67.15;100082.25;3541555;40;20022;-79
2021/08/09 02:22:39;;;;;;;3.05;0.80;;;;;;;14.14;67.84;100082.25;3561303;40;20034;-79
2021/08/09 02:25:11;;;;;;;2.80;0.77;;;;;;;14.10;69.09;100079.84;3540780;40;20062;-78
2021/08/09 02:28:13;;;;;;;3.00;0.85;;;;;;;14.11;66.91;100081.53;3547696;40;20052;-79
2021/08/09 02:30:44;;;;;;;1.33;0.45;;;;;;;14.03;68.60;100074.88;3542435;40;21385;-79
2021/08/09 02:33:13;;;;;;;2.78;0.70;;;;;;;14.01;68.89;100071.47;3553566;40;20049;-79
2021/08/09 02:35:43;;;;;;;4.97;0.98;;;;;;;13.99;68.86;100072.47;3556006;40;20057;-79
2021/08/09 02:38:10;;;;;;;2.85;0.65;;;;;;;13.99;69.01;100069.84;3505131;40;20057;-78
2021/08/09 02:40:40;;;;;;;2.58;0.82;;;;;;;14.01;69.01;100070.63;3535071;40;20320;-79
2021/08/09 02:43:07;;;;;;;2.15;0.77;;;;;;;13.91;69.40;100061.47;3542522;40;20080;-79
2021/08/09 02:45:36;;;;;;;3.03;0.80;;;;;;;13.96;69.14;100062.13;3549852;40;20647;-79
2021/08/09 02:48:10;;;;;;;2.38;0.95;;;;;;;13.92;68.61;100063.16;3533347;40;20413;-79
2021/08/09 02:50:39;;;;;;;1.27;0.60;;;;;;;13.99;69.59;100077.72;3539698;40;20050;-79
2021/08/09 02:53:06;;;;;;;2.05;0.80;;;;;;;13.93;69.70;100068.34;3560298;40;20037;-79
2021/08/09 02:55:37;;;;;;;1.70;0.60;;;;;;;13.84;68.83;100047.78;3559936;40;20053;-79
2021/08/09 02:58:07;;;;;;;1.08;0.57;;;;;;;13.92;69.83;100066.66;3556355;40;20065;-79
2021/08/09 03:00:36;;;;;;;1.67;0.77;;;;;;;13.83;69.63;100055.72;3533644;40;20045;-79
2021/08/09 03:03:06;;;;;;;3.50;0.77;;;;;;;13.85;69.54;100054.75;3560787;40;20094;-79
2021/08/09 03:05:39;;;;;;;1.60;0.60;;;;;;;13.91;69.05;100064.09;3532441;40;20885;-79
2021/08/09 03:08:13;;;;;;;2.63;0.60;;;;;;;13.92;69.07;100071.91;3536633;40;20029;-79
2021/08/09 03:10:47;;;;;;;5.72;0.65;;;;;;;13.94;68.91;100074.47;3543414;40;20057;-79
2021/08/09 03:13:21;;;;;;;3.10;0.80;;;;;;;13.93;69.54;100072.75;3538658;40;20053;-79
2021/08/09 03:15:54;;;;;;;2.55;0.63;;;;;;;13.95;69.50;100073.53;3547926;40;20061;-78
2021/08/09 03:18:34;;;;;;;3.63;0.65;;;;;;;13.94;69.29;100074.47;3526407;40;20040;-79
2021/08/09 03:21:31;;;;;;;5.05;0.50;;;;;;;13.92;68.30;100074.53;3531838;40;20053;-79
2021/08/09 03:24:04;;;;;;;2.65;0.77;;;;;;;13.91;69.54;100074.59;3547374;40;20107;-79
2021/08/09 03:26:37;;;;;;;1.48;0.73;;;;;;;13.90;69.55;100072.91;3541245;40;20095;-80
2021/08/09 03:29:04;;;;;;;5.43;1.10;;;;;;;13.89;70.37;100071.19;3545944;40;20117;-79
2021/08/09 03:31:32;;;;;;;;;;;;;;;13.93;67.43;100078.00;3537390;40;20057;-79
2021/08/09 03:34:00;;;;;;;0.93;0.40;;;;;;;13.79;69.78;100064.66;3536188;40;19940;-80
2021/08/09 03:36:27;;;;;;;1.77;0.70;;;;;;;13.82;70.04;100057.50;3548876;40;20683;-80
2021/08/09 03:38:54;;;;;;;3.55;1.08;;;;;;;13.85;70.26;100074.88;3535938;40;20050;-79
2021/08/09 03:41:52;;;;;;;2.55;0.70;;;;;;;13.90;68.77;100073.75;3534063;40;20044;-79
2021/08/09 03:44:25;;;;;;;1.77;0.70;;;;;;;13.83;69.54;100060.97;3551522;40;20056;-80
2021/08/09 03:46:58;;;;;;;2.38;0.80;;;;;;;13.75;69.76;100054.31;3542347;40;20060;-78
2021/08/09 03:49:24;;;;;;;1.98;0.75;;;;;;;13.81;70.26;100070.69;3544764;40;20823;-79
2021/08/09 03:51:52;;;;;;;1.98;0.60;;;;;;;13.80;70.87;100071.63;3545471;40;20127;-80
2021/08/09 03:54:20;;;;;;;;;;;;;;;13.82;67.67;100078.50;3581231;40;20053;-80
2021/08/09 03:56:47;;;;;;;1.42;0.60;;;;;;;13.74;70.23;100063.13;3537749;40;19941;-78
2021/08/09 03:59:20;;;;;;;2.38;0.80;;;;;;;13.69;70.11;100059.84;3557414;40;20059;-79
2021/08/09 04:01:49;;;;;;;2.72;0.88;;;;;;;13.68;71.07;100058.13;3563294;40;21069;-79
2021/08/09 04:04:16;;;;;;;2.00;0.63;;;;;;;13.76;71.06;100071.75;3569106;40;20315;-79
2021/08/09 04:06:45;;;;;;;4.15;0.93;;;;;;;13.60;70.88;100044.53;3511423;40;20379;-79
2021/08/09 04:09:14;;;;;;;;;;;;;;;13.79;68.13;100076.03;3547359;40;20077;-79
2021/08/09 04:11:45;;;;;;;1.38;0.50;;;;;;;13.74;70.45;100063.13;3552917;40;19953;-79
2021/08/09 04:14:12;;;;;;;3.35;0.85;;;;;;;13.76;71.29;100066.50;3557626;40;20053;-79
2021/08/09 04:16:39;;;;;;;3.03;1.20;;;;;;;13.66;71.30;100052.09;3565623;40;20050;-78
2021/08/09 04:19:08;;;;;;;1.95;0.70;;;;;;;13.78;71.27;100066.44;3547841;40;20080;-79
2021/08/09 04:21:37;;;;;;;2.40;0.85;;;;;;;13.80;71.61;100066.38;3548038;40;20057;-79
2021/08/09 04:24:04;;;;;;;;;;;;;;;13.89;68.85;100073.81;3576944;40;20341;-78
2021/08/09 04:26:32;;;;;;;4.25;0.80;;;;;;;13.75;71.28;100053.47;3557766;40;20518;-79
2021/08/09 04:28:59;;;;;;;2.03;0.52;;;;;;;13.87;71.44;100073.88;3575504;40;21649;-79
2021/08/09 04:31:27;;;;;;;2.75;1.08;;;;;;;13.90;71.43;100073.75;3568714;40;20061;-80
2021/08/09 04:33:53;;;;;;;;;;;;;;;13.99;68.64;100072.47;3561142;40;20041;-78
2021/08/09 04:36:20;;;;;;;1.07;0.50;;;;;;;13.95;71.13;100074.38;3567676;40;20003;-79
2021/08/09 04:38:47;;;;;;;2.97;0.57;;;;;;;13.92;71.44;100076.28;3560995;40;20316;-79
2021/08/09 04:41:16;;;;;;;5.70;0.70;;;;;;;13.91;71.08;100069.34;3524681;40;20064;-79
2021/08/09 04:43:45;;;;;;;2.20;0.80;;;;;;;13.98;71.48;100073.38;3534620;40;20057;-79
2021/08/09 04:46:15;;;;;;;3.42;0.75;;;;;;;13.84;71.31;100058.28;3560834;40;20040;-79
2021/08/09 04:48:45;;;;;;;4.35;0.60;;;;;;;14.00;71.21;100069.78;3544494;40;20041;-79
2021/08/09 04:51:13;;;;;;;1.55;0.60;;;;;;;14.00;71.47;100074.19;3546749;40;20960;-80
2021/08/09 04:53:44;;;;;;;2.65;0.70;;;;;;;14.03;71.37;100079.25;3543790;40;20081;-79
2021/08/09 04:56:14;;;;;;;1.88;0.55;;;;;;;14.00;71.49;100071.56;3529139;40;20044;-80
2021/08/09 04:58:47;;;;;;;1.70;0.65;;;;;;;14.03;71.13;100074.88;3543489;40;20646;-79
2021/08/09 05:01:15;;;;;;;1.85;0.80;;;;;;;14.00;71.41;100076.81;3543291;40;20076;-79
2021/08/09 05:03:45;;;;;;;1.35;0.63;;;;;;;13.83;71.43;100045.22;3561026;40;20029;-79
2021/08/09 05:06:24;;;;;;;2.00;0.90;;;;;;;14.06;71.24;100076.50;3568630;40;20088;-79
2021/08/09 05:08:54;;;;;;;1.52;0.63;;;;;;;14.02;71.45;100064.44;3523403;40;20059;-79
2021/08/09 05:11:22;;;;;;;1.85;0.90;;;;;;;14.01;71.71;100066.22;3541819;40;20057;-79
2021/08/09 05:13:57;;;;;;;2.72;0.82;;;;;;;14.07;71.78;100069.47;3557200;40;20096;-79
2021/08/09 05:16:28;;;;;;;2.25;0.70;;;;;;;14.14;72.24;100073.50;3551555;40;20085;-78
2021/08/09 05:19:01;;;;;;;1.95;0.75;;;;;;;14.16;71.89;100069.91;3556545;40;20704;-79
2021/08/09 05:21:32;;;;;;;2.40;0.70;;;;;;;14.17;72.12;100066.34;3582575;40;20079;-79
2021/08/09 05:24:01;;;;;;;2.53;0.63;;;;;;;14.20;72.04;100071.47;3574128;40;20072;-79
2021/08/09 05:26:33;;;;;;;3.92;1.02;;;;;;;14.27;71.86;100072.84;3568414;40;20049;-79
2021/08/09 05:29:03;;;;;;;2.33;0.82;;;;;;;14.24;72.25;100062.53;3548542;40;20039;-79
2021/08/09 05:31:32;;;;;;;2.38;0.98;;;;;;;14.36;72.23;100079.44;3571766;40;20210;-78
2021/08/09 05:34:00;;;;;;;1.70;0.65;;;;;;;14.23;72.43;100059.94;3559843;40;20048;-79
2021/08/09 05:36:31;;;;;;;;;;;;;;;14.46;69.97;100087.75;3550043;40;20053;-79
2021/08/09 05:39:01;;;;;;;2.60;0.70;;;;;;;14.27;71.79;100057.09;3580740;40;19937;-79
2021/08/09 05:41:33;;;;;;;3.67;0.70;;;;;;;14.52;71.84;100090.09;3564825;40;20068;-79
2021/08/09 05:44:06;;;;;;;1.40;0.60;;;;;;;14.49;71.63;100072.69;3542981;40;20134;-79
2021/08/09 05:46:40;;;;;;;3.47;1.05;;;;;;;14.59;71.81;100095.91;3554343;40;20044;-78
2021/08/09 05:49:09;;;;;;;2.15;0.85;;;;;;;14.59;72.37;100091.50;3554780;40;20422;-79
2021/08/09 05:51:40;;;;;;;1.52;0.93;;;;;;;14.61;72.00;100087.03;3563319;40;20060;-79
2021/08/09 05:54:09;;;;;;;3.67;0.80;;;;;;;14.49;72.49;100067.44;3533898;40;20921;-79
2021/08/09 05:56:41;;;;;;;1.13;0.63;;;;;;;14.66;71.70;100089.44;3545582;40;22722;-79
2021/08/09 05:59:17;;;;;;;2.25;0.80;;;;;;;14.69;71.74;100089.25;3545667;40;20056;-79
2021/08/09 06:01:45;;;;;;;1.38;0.68;;;;;;;14.75;72.49;100095.09;3554886;40;20536;-79
2021/08/09 06:04:16;;;;;;;1.42;0.60;;;;;;;14.81;72.24;100103.59;3553612;40;20070;-80
2021/08/09 06:06:44;;;;;;;2.33;0.80;;;;;;;14.82;71.92;100100.03;3557716;40;20050;-79
2021/08/09 06:09:19;;;;;;;1.17;0.70;;;;;;;14.74;72.14;100092.50;3530588;40;20045;-80
2021/08/09 06:11:45;;;;;;;2.92;0.60;;;;;;;14.87;72.47;100092.78;3523624;40;20111;-79
2021/08/09 06:14:16;;;;;;;1.77;0.80;;;;;;;14.90;72.47;100090.84;3559552;40;20057;-80
2021/08/09 06:16:43;;;;;;;2.65;0.80;;;;;;;14.96;72.12;100103.69;3555334;40;20111;-79
2021/08/09 06:19:14;;;;;;;2.88;0.80;;;;;;;15.00;71.95;100104.34;3583516;40;20065;-79
2021/08/09 06:21:41;;;;;;;1.83;0.80;;;;;;;15.04;72.22;100106.75;3568252;40;20061;-79
2021/08/09 06:24:09;;;;;;;1.45;0.90;;;;;;;15.08;72.64;100115.34;3566369;40;20054;-79
2021/08/09 06:26:49;;;;;;;1.30;0.60;;;;;;;15.16;71.83;100110.56;3560366;40;20860;-79
2021/08/09 06:29:16;;;;;;;2.13;0.73;;;;;;;15.13;73.18;100110.69;3566210;40;20061;-78
2021/08/09 06:31:44;;;;;;;1.38;0.70;;;;;;;15.15;72.96;100106.19;3569815;40;20523;-79
2021/08/09 06:34:12;;;;;;;1.38;0.80;;;;;;;14.99;73.17;100081.63;3554702;40;20107;-79
2021/08/09 06:36:44;;;;;;;2.88;1.10;;;;;;;15.16;72.47;100105.28;3555709;40;20854;-79
2021/08/09 06:39:14;;;;;;;1.30;0.70;;;;;;;15.20;73.05;100111.22;3577369;40;20029;-79
2021/08/09 06:41:45;;;;;;;2.90;0.85;;;;;;;15.19;72.87;100113.00;3571316;40;20468;-78
2021/08/09 06:44:34;;;;;;;1.98;0.73;;;;;;;15.17;72.34;100099.09;3558002;40;20049;-79
2021/08/09 06:47:03;;;;;;;1.92;0.80;;;;;;;15.20;72.99;100111.22;3555090;40;20080;-79
2021/08/09 06:49:33;;;;;;;2.05;0.90;;;;;;;15.23;72.81;100117.19;3547351;40;20040;-78
2021/08/09 06:52:00;;;;;;;4.93;0.90;;;;;;;15.22;72.99;100114.66;3564005;40;20512;-80
2021/08/09 06:54:29;;;;;;;1.58;0.77;;;;;;;15.13;72.63;100097.56;3553365;40;20040;-79
2021/08/09 06:57:02;;;;;;;1.30;0.70;;;;;;;15.24;72.88;100118.03;3547215;40;20057;-79
2021/08/09 06:59:29;;;;;;;3.33;1.00;;;;;;;15.24;73.41;100113.63;3550206;40;20045;-79
2021/08/09 07:01:57;;;;;;;1.92;0.93;;;;;;;15.29;73.04;100111.59;3569610;40;20403;-80
2021/08/09 07:04:25;;;;;;;2.00;0.88;;;;;;;15.29;73.50;100110.75;3572601;40;20051;-79
2021/08/09 07:06:53;;;;;;;1.95;0.73;;;;;;;15.35;73.86;100120.13;3561400;40;20049;-80
2021/08/09 07:09:24;;;;;;;3.05;0.90;;;;;;;15.43;73.69;100123.22;3555332;40;20134;-80
2021/08/09 07:11:54;;;;;;;4.25;0.90;;;;;;;15.42;73.42;100111.00;3550993;40;20048;-80
2021/08/09 07:14:22;;;;;;;2.58;1.05;;;;;;;15.46;73.33;100115.13;3539809;40;20046;-80
2021/08/09 07:17:13;;;;;;;2.22;0.80;;;;;;;15.56;72.11;100119.00;3523000;40;20471;-80
2021/08/09 07:19:42;;;;;;;3.38;0.93;;;;;;;15.55;73.55;100112.88;3564488;40;20045;-80
2021/08/09 07:22:39;;;;;;;3.15;1.00;;;;;;;15.65;71.83;100121.19;3553510;40;20382;-79
2021/08/09 07:25:14;;;;;;;3.13;1.00;;;;;;;15.61;73.32;100111.69;3544926;40;20048;-79
2021/08/09 07:27:42;;;;;;;1.92;0.90;;;;;;;15.65;73.82;100123.81;3566431;40;20115;-79
2021/08/09 07:30:10;;;;;;;;;;;;;;;15.72;70.92;100121.72;3565100;40;20045;-80
2021/08/09 07:32:39;;;;;;;2.63;1.00;;;;;;;15.70;73.39;100118.31;3544329;40;19956;-80
2021/08/09 07:35:07;;;;;;;2.17;1.10;;;;;;;15.65;74.33;100113.28;3567514;40;20040;-79
2021/08/09 07:37:35;;;;;;;1.88;0.82;;;;;;;15.63;74.14;100109.88;3537425;40;20069;-80
2021/08/09 07:40:04;;;;;;;;;;;;;;;15.75;71.03;100130.28;3555706;40;20450;-80
2021/08/09 07:42:32;;;;;;;2.40;1.10;;;;;;;15.71;75.04;100127.88;3557495;40;19940;-78
2021/08/09 07:45:00;;;;;;;2.72;1.02;;;;;;;15.66;75.13;100120.28;3576407;40;20414;-78
2021/08/09 07:47:28;;;;;;;2.40;1.15;;;;;;;15.65;74.88;100123.81;3568259;40;20073;-79
2021/08/09 07:49:55;;;;;;;2.00;1.00;;;;;;;15.60;75.89;100130.22;3580047;40;20049;-79
2021/08/09 07:52:22;;;;;;;3.17;1.00;;;;;;;15.58;75.69;100132.94;3578216;40;20068;-79
2021/08/09 07:54:51;;;;;;;1.13;0.68;;;;;;;15.54;76.26;100120.88;3571579;40;20630;-79
2021/08/09 07:57:26;;;;;;;2.60;1.10;;;;;;;15.55;74.72;100138.34;3563592;40;20055;-79
2021/08/09 07:59:56;;;;;;;2.95;1.30;;;;;;;15.52;75.67;100128.00;3551057;40;20401;-79
2021/08/09 08:02:23;;;;;;;4.43;1.48;;;;;;;15.49;76.88;100130.78;3557054;40;20056;-77
2021/08/09 08:04:55;;;;;;;4.05;1.50;;;;;;;15.51;75.96;100126.28;3578695;40;20052;-76
2021/08/09 08:07:23;;;;;;;3.80;1.50;;;;;;;15.49;76.68;100125.53;3558837;40;20092;-77
2021/08/09 08:10:19;;;;;;;2.88;1.23;;;;;;;15.49;74.17;100133.41;3574564;40;20433;-79
2021/08/09 08:12:48;;;;;;;4.80;1.58;;;;;;;15.45;77.67;100137.97;3570710;40;20071;-79
2021/08/09 08:15:19;;;;;;;2.90;1.25;;;;;;;15.40;78.27;100134.72;3576911;40;20048;-79
2021/08/09 08:17:57;;;;;;;2.50;0.95;;;;;;;15.42;77.40;100129.41;3536410;40;20045;-78
2021/08/09 08:20:25;;;;;;;5.53;1.45;;;;;;;15.34;77.99;100129.78;3550455;40;20099;-80
2021/08/09 08:22:54;;;;;;;3.10;1.45;;;;;;;15.40;78.43;100140.00;3532404;40;20455;-80
2021/08/09 08:25:24;;;;;;;2.67;1.27;;;;;;;15.43;78.52;100141.63;3531612;40;20041;-79
2021/08/09 08:27:58;;;;;;;3.55;1.02;;;;;;;15.44;78.38;100145.97;3542406;40;20057;-80
2021/08/09 08:30:25;;;;;;;3.55;1.40;;;;;;;15.44;78.88;100140.69;3521734;40;20043;-79
2021/08/09 08:33:14;;;;;;;3.30;1.30;;;;;;;15.49;77.25;100141.31;3502942;40;20118;-79
2021/08/09 08:35:41;;;;;;;2.97;1.42;;;;;;;15.47;79.61;100140.53;3552419;40;20041;-79
2021/08/09 08:38:12;;;;;;;5.90;1.60;;;;;;;15.55;77.68;100138.34;3564622;40;20056;-79
2021/08/09 08:40:51;;;;;;;3.95;1.55;;;;;;;15.59;77.15;100137.25;3539488;40;20061;-79
2021/08/09 08:43:22;;;;;;;3.45;1.20;;;;;;;15.63;79.19;100144.09;3520567;40;20114;-79
2021/08/09 08:45:56;;;;;;;2.50;1.33;;;;;;;15.66;78.27;100146.59;3573271;40;20044;-79
2021/08/09 08:48:25;;;;;;;3.50;1.50;;;;;;;15.65;78.61;100139.59;3568643;40;20060;-79
2021/08/09 08:51:13;;;;;;;3.30;1.27;;;;;;;15.70;78.65;100152.53;3516452;40;20053;-79
2021/08/09 08:53:50;;;;;;;5.32;1.13;;;;;;;15.80;77.18;100144.06;3541908;40;20053;-79
2021/08/09 08:56:19;;;;;;;2.28;1.20;;;;;;;15.82;78.98;100142.22;3541907;40;20089;-78
2021/08/09 08:58:46;;;;;;;2.85;1.38;;;;;;;15.81;78.82;100139.63;3571825;40;20108;-79
2021/08/09 09:01:38;;;;;;;2.90;1.10;;;;;;;15.91;76.45;100145.25;3558137;40;20654;-80
2021/08/09 09:04:19;;;;;;;3.55;1.10;;;;;;;15.90;77.22;100140.94;3547316;40;20072;-79
2021/08/09 09:06:54;;;;;;;3.13;1.10;;;;;;;15.94;77.52;100139.84;3551009;40;20511;-79
2021/08/09 09:09:23;;;;;;;3.63;1.50;;;;;;;15.91;78.31;100134.72;3531500;40;20064;-80
2021/08/09 09:11:53;;;;;;;6.18;1.65;;;;;;;15.91;78.00;100138.22;3543858;40;20045;-79
2021/08/09 09:14:31;;;;;;;2.33;1.10;;;;;;;16.01;77.37;100151.72;3551906;40;20045;-78
2021/08/09 09:17:06;;;;;;;2.72;1.20;;;;;;;16.01;77.95;100149.94;3545465;40;21175;-80
2021/08/09 09:19:43;;;;;;;3.33;1.27;;;;;;;16.00;78.03;100155.31;3549910;40;20061;-80
2021/08/09 09:22:21;;;;;;;4.18;1.20;;;;;;;16.09;77.08;100163.56;3543614;40;20089;-80
2021/08/09 09:24:53;;;;;;;2.35;1.13;;;;;;;16.08;78.58;100166.28;3556695;40;20049;-80
2021/08/09 09:27:29;;;;;;;5.13;1.48;;;;;;;16.13;78.07;100161.63;3553167;40;21189;-79
2021/08/09 09:30:00;;;;;;;3.55;1.40;;;;;;;16.14;78.25;100163.31;3552944;40;20101;-79
2021/08/09 09:32:29;;;;;;;2.95;1.33;;;;;;;16.16;78.29;100161.44;3578943;40;20866;-79
2021/08/09 09:34:57;;;;;;;2.80;1.15;;;;;;;16.15;78.05;100162.38;3558757;40;20065;-80
2021/08/09 09:37:37;;;;;;;3.40;1.20;;;;;;;16.23;78.09;100165.47;3553494;40;20061;-79
2021/08/09 09:40:16;;;;;;;2.67;1.02;;;;;;;16.19;79.42;100161.28;3531421;40;20104;-80
2021/08/09 09:42:43;;;;;;;2.47;0.95;;;;;;;16.28;79.08;100160.78;3529792;40;20153;-79
2021/08/09 09:45:30;;;;;;;3.47;1.20;;;;;;;16.45;77.17;100166.91;3544986;40;20050;-79
2021/08/09 09:48:05;;;;;;;2.08;1.00;;;;;;;16.50;77.90;100170.13;3523635;40;20057;-79
2021/08/09 09:50:37;;;;;;;3.75;1.38;;;;;;;16.60;78.18;100168.69;3543317;40;20470;-80
2021/08/09 09:53:19;;;;;;;2.60;1.20;;;;;;;16.69;77.62;100173.44;3549824;40;20068;-79
2021/08/09 09:55:48;;;;;;;2.15;1.10;;;;;;;16.73;78.26;100172.38;3525402;40;20075;-79
2021/08/09 09:58:15;;;;;;;3.53;1.00;;;;;;;16.80;78.10;100171.09;3561996;40;20069;-79
2021/08/09 10:00:49;;;;;;;4.05;1.70;;;;;;;16.98;77.14;100168.31;3545098;40;20750;-79
2021/08/09 10:03:16;;;;;;;2.95;1.40;;;;;;;17.09;77.72;100165.94;3542106;40;20764;-79
2021/08/09 10:05:43;;;;;;;4.30;1.30;;;;;;;17.30;77.67;100171.72;3565256;40;20054;-80
2021/08/09 10:08:18;;;;;;;2.53;1.27;;;;;;;17.54;77.14;100174.72;3563862;40;20089;-79
2021/08/09 10:10:54;;;;;;;2.25;1.05;;;;;;;17.73;77.03;100175.31;3552571;40;20061;-79
2021/08/09 10:13:23;;;;;;;3.40;1.20;;;;;;;17.84;76.90;100172.88;3558751;40;20078;-79
2021/08/09 10:15:52;;;;;;;2.47;1.10;;;;;;;17.93;75.38;100166.16;3554713;40;20057;-79
2021/08/09 10:18:24;;;;;;;2.70;1.25;;;;;;;18.11;75.47;100169.47;3560739;40;20069;-79
2021/08/09 10:20:55;;;;;;;2.40;1.10;;;;;;;18.26;75.48;100181.72;3567437;40;20054;-80
2021/08/09 10:23:53;;;;;;;3.15;1.02;;;;;;;18.38;74.68;100183.59;3552519;40;20073;-79
2021/08/09 10:26:21;;;;;;;2.90;1.23;;;;;;;18.40;74.99;100181.72;3567697;40;20090;-80
2021/08/09 10:28:54;;;;;;;;;;;;;;;18.55;74.52;100184.31;3570864;40;20065;-80
2021/08/09 10:31:30;;;;;;;1.88;0.93;;;;;;;18.63;73.94;100184.66;3561934;40;19963;-79
2021/08/09 10:34:05;;;;;;;4.82;1.15;;;;;;;18.66;74.10;100187.13;3561271;40;20056;-80
2021/08/09 10:37:12;;;;;;;3.22;1.20;;;;;;;18.77;73.35;100199.69;3577455;40;20057;-80
2021/08/09 10:39:54;;;;;;;2.15;0.98;;;;;;;18.79;74.23;100188.06;3565262;40;20091;-79
2021/08/09 10:42:28;;;;;;;2.70;1.00;;;;;;;18.80;74.12;100189.75;3553081;40;20374;-80
2021/08/09 10:44:55;;;;;;;1.45;0.65;;;;;;;18.76;75.05;100188.28;3558385;40;20100;-80
2021/08/09 10:47:52;;;;;;;2.47;1.15;;;;;;;18.87;73.50;100185.75;3581176;40;20056;-80
2021/08/09 10:50:26;;;;;;;2.30;0.93;;;;;;;18.90;74.24;100190.00;3552436;40;20494;-79
2021/08/09 10:52:55;;;;;;;2.65;1.05;;;;;;;18.91;73.31;100187.28;3556720;40;20605;-80
2021/08/09 10:55:31;;;;;;;2.55;1.02;;;;;;;19.09;72.98;100190.47;3567946;40;20061;-81
2021/08/09 10:58:04;;;;;;;5.90;1.25;;;;;;;19.19;73.06;100196.03;3554563;40;20061;-80
2021/08/09 11:00:38;;;;;;;2.22;1.17;;;;;;;19.33;72.27;100195.94;3556179;40;20112;-80
2021/08/09 11:03:06;;;;;;;3.05;1.40;;;;;;;19.36;71.80;100195.75;3554499;40;20130;-80
2021/08/09 11:05:34;;;;;;;4.75;1.83;;;;;;;19.35;70.74;100185.25;3548391;40;20042;-79
2021/08/09 11:08:20;;;;;;;2.30;0.95;;;;;;;19.58;72.30;100192.50;3561165;40;20045;-80
2021/08/09 11:11:15;;;;;;;2.65;1.30;;;;;;;19.71;72.48;100184.56;3559811;40;20437;-79
2021/08/09 11:13:46;;;;;;;2.00;1.00;;;;;;;19.95;71.51;100221.78;3577597;40;20093;-80
2021/08/09 11:16:28;;;;;;;2.92;1.13;;;;;;;20.20;71.03;100199.72;3565527;40;20069;-79
2021/08/09 11:18:59;;;;;;;2.20;1.10;;;;;;;20.32;70.80;100195.31;3563975;40;20428;-80
2021/08/09 11:21:28;;;;;;;3.67;1.50;;;;;;;20.41;70.26;100200.81;3573137;40;20065;-79
2021/08/09 11:23:56;;;;;;;2.60;1.08;;;;;;;20.62;70.00;100203.78;3557761;40;20064;-80
2021/08/09 11:26:24;;;;;;;3.17;1.33;;;;;;;20.83;69.74;100197.84;3560213;40;20774;-79
2021/08/09 11:29:05;;;;;;;3.33;1.10;;;;;;;21.12;70.38;100198.38;3567303;40;20057;-79
2021/08/09 11:31:47;;;;;;;3.10;1.40;;;;;;;21.37;69.12;100197.41;3562653;40;20463;-81
2021/08/09 11:34:23;;;;;;;2.08;1.20;;;;;;;21.59;67.41;100208.06;3568469;40;20633;-79
2021/08/09 11:37:02;;;;;;;1.92;1.05;;;;;;;21.81;67.48;100193.16;3555991;40;20076;-80
2021/08/09 11:39:40;;;;;;;3.00;1.30;;;;;;;21.96;67.91;100190.16;3557659;40;20959;-79
2021/08/09 11:42:13;;;;;;;2.58;1.17;;;;;;;22.10;66.29;100190.84;3566316;40;20455;-79
2021/08/09 11:44:40;;;;;;;4.57;1.55;;;;;;;22.14;65.84;100187.03;3569370;40;20060;-80
2021/08/09 11:47:09;;;;;;;2.92;1.02;;;;;;;22.17;63.31;100174.34;3575039;40;20615;-80
2021/08/09 11:49:37;;;;;;;3.15;1.30;;;;;;;22.20;62.62;100191.84;3557772;40;20108;-80
2021/08/09 11:52:20;;;;;;;1.88;1.17;;;;;;;22.27;66.16;100182.44;3574840;40;20062;-80